Terminal Aerodrome Forecast
Issued by NWS Bismarck, ND

Home | Current Version | Previous Version | Graphics & Text | Print | Product List | Glossary On
Versions: 1 2 3 4 5 6 7 8 9 10 11 12 13 14 15 16 17 18
000
FTUS43 KBIS 191700
TAFBIS
TAF
KBIS 191722Z 1918/2018 16013KT P6SM SCT110
     FM200200 18009KT P6SM FEW100
     FM201000 24008KT P6SM FEW100 SCT200
     FM201400 28010KT P6SM SCT070=

USA.gov is the U.S. government's official web portal to all federal, state and local government web resources and services.